Airfield :
LOGIN :

Register | Disclaimer

   EN    FR    IT 

 










Legend :    VFR   Marginal VFR   IFR   Intensive IFR   Very Intensive IFR
Visi :
Ceiling :
>= 8 km
>= 3000ft
5 to 8 km
1000 to 3000 ft
1500m to 5 km
500 to 1000 ft
800 to 1500m
200 to 500 ft
< 800m
< 200 ft
Symbols :   Thunderstorms  Fog  Heavy snow  Heavy precipitations  Wind > 20 kt
SIGMETs :     Misc.  Thunderstorms  Icing  Turbulence  Mountain Waves  Volcanic Ashes






- Airport Elevation : 24 ft
- IATA code : SGD


EKSB - Sonderborg

CURRENT METAR :
  • 150220Z AUTO 09017KT 9999NDV BKN140/// 07/04 Q1011

EXPIRED METARs :
  • 150150Z AUTO 09016KT 9999NDV FEW013/// BKN140/// 07/05 Q1011
  • 150120Z AUTO 09017KT 9999NDV FEW013/// SCT180/// 07/05 Q1011
  • 150050Z AUTO 09016KT 9999NDV FEW011/// SCT230/// 07/05 Q1012
  • 150020Z AUTO 10014KT 9999NDV FEW013/// 07/05 Q1012
  • 142350Z AUTO 09015KT 9999NDV NCD 07/05 Q1012

Expired Forecast.



MET'MAP, your aeronautical weather chart ! - Copyright ORBIFLY December 2007 - Disclaimer

ORBIFLY MET'MAP TEAM :

Programming & Development : Alexandra Zaïnal
Concept & Development : Baudouin d'Aumeries
Co-Development & Prog : Marc-Olivier Méhu
Technical & hardware support : Manuel Goepfert

Contact : metmap@orbifly.com




SOURCES & CREDITS :

   NOAA